KAFK

Nebraska City Municipal Airport

Nebraska City, Nebraska, USA
METAR KAFK 180955Z AUTO 18006KT 10SM CLR 05/03 A3044 RMK AO2 T00500030
Observed Flight Rules
Oct-18 @ 09:55 UTC (19 minutes ago) Visual Flight Rules
Wind Visibility Clouds
180° at 6 knots 10 miles
  • Clear skies
Temperatures Readings
Current 5°C / 41°F
Dewpoint 3°C / 37°F
Humidity 87%
Altimeter 30.44" Hg
Pressure 1031 hPa
Elevation 354
METAR KAFK 180955Z AUTO 18006KT 10SM CLR 05/03 A3044 RMK AO2 T00500030
Observed Flight Rules
Oct-18 @ 09:55 UTC
(19 minutes ago)
VFR
Wind Visibility
180° at 6 knots 10 miles
Clouds
  • Clear skies
Temperature Dewpoint
5°C / 41°F 3°C / 37°F
Humidity Altimeter Pressure
87% 30.44" Hg 1031 hPa